sensor_id;sensor_type;location;lat;lon;timestamp;P1;durP1;ratioP1;P2;durP2;ratioP2
16522;SDS011;19889;52.546;13.348;2023-03-14T00:00:49;3.28;;;1.20;;
16522;SDS011;19889;52.546;13.348;2023-03-14T00:03:17;1.67;;;1.40;;
16522;SDS011;19889;52.546;13.348;2023-03-14T00:05:44;1.35;;;1.10;;
16522;SDS011;19889;52.546;13.348;2023-03-14T00:08:11;1.45;;;0.98;;
16522;SDS011;19889;52.546;13.348;2023-03-14T00:10:39;1.58;;;1.10;;
16522;SDS011;19889;52.546;13.348;2023-03-14T00:13:06;1.60;;;1.13;;
16522;SDS011;19889;52.546;13.348;2023-03-14T00:15:33;1.83;;;1.10;;
16522;SDS011;19889;52.546;13.348;2023-03-14T00:18:01;3.58;;;0.88;;
16522;SDS011;19889;52.546;13.348;2023-03-14T00:20:28;2.15;;;1.17;;
16522;SDS011;19889;52.546;13.348;2023-03-14T00:22:55;2.75;;;1.23;;
16522;SDS011;19889;52.546;13.348;2023-03-14T00:25:22;1.30;;;0.90;;
16522;SDS011;19889;52.546;13.348;2023-03-14T00:27:51;0.93;;;0.93;;
16522;SDS011;19889;52.546;13.348;2023-03-14T00:30:18;1.17;;;1.08;;
16522;SDS011;19889;52.546;13.348;2023-03-14T00:32:45;2.25;;;0.90;;
16522;SDS011;19889;52.546;13.348;2023-03-14T00:35:12;1.42;;;1.00;;
16522;SDS011;19889;52.546;13.348;2023-03-14T00:37:39;1.15;;;1.02;;
16522;SDS011;19889;52.546;13.348;2023-03-14T00:40:08;3.47;;;1.20;;
16522;SDS011;19889;52.546;13.348;2023-03-14T00:42:36;4.05;;;1.20;;
16522;SDS011;19889;52.546;13.348;2023-03-14T00:45:05;3.55;;;1.30;;
16522;SDS011;19889;52.546;13.348;2023-03-14T00:47:34;3.15;;;1.05;;
16522;SDS011;19889;52.546;13.348;2023-03-14T00:50:01;1.27;;;0.93;;
16522;SDS011;19889;52.546;13.348;2023-03-14T00:52:28;3.35;;;1.27;;
16522;SDS011;19889;52.546;13.348;2023-03-14T00:54:54;2.00;;;1.00;;
16522;SDS011;19889;52.546;13.348;2023-03-14T00:57:22;1.60;;;1.05;;
16522;SDS011;19889;52.546;13.348;2023-03-14T00:59:50;2.30;;;1.60;;
16522;SDS011;19889;52.546;13.348;2023-03-14T01:02:18;3.67;;;1.08;;
16522;SDS011;19889;52.546;13.348;2023-03-14T01:04:48;1.20;;;1.10;;
16522;SDS011;19889;52.546;13.348;2023-03-14T01:07:15;3.40;;;1.00;;
16522;SDS011;19889;52.546;13.348;2023-03-14T01:09:42;2.47;;;1.40;;
16522;SDS011;19889;52.546;13.348;2023-03-14T01:12:09;1.27;;;1.02;;
16522;SDS011;19889;52.546;13.348;2023-03-14T01:14:36;2.63;;;1.52;;
16522;SDS011;19889;52.546;13.348;2023-03-14T01:17:03;1.63;;;1.00;;
16522;SDS011;19889;52.546;13.348;2023-03-14T01:19:31;1.95;;;1.05;;
16522;SDS011;19889;52.546;13.348;2023-03-14T01:21:58;0.85;;;0.85;;
16522;SDS011;19889;52.546;13.348;2023-03-14T01:24:25;1.10;;;1.00;;
16522;SDS011;19889;52.546;13.348;2023-03-14T01:26:52;1.30;;;1.20;;
16522;SDS011;19889;52.546;13.348;2023-03-14T01:29:22;1.30;;;1.10;;
16522;SDS011;19889;52.546;13.348;2023-03-14T01:31:49;1.63;;;1.02;;
16522;SDS011;19889;52.546;13.348;2023-03-14T01:34:16;2.33;;;1.00;;
16522;SDS011;19889;52.546;13.348;2023-03-14T01:36:45;2.08;;;0.95;;
16522;SDS011;19889;52.546;13.348;2023-03-14T01:39:12;0.85;;;0.82;;
16522;SDS011;19889;52.546;13.348;2023-03-14T01:41:40;1.00;;;1.00;;
16522;SDS011;19889;52.546;13.348;2023-03-14T01:44:08;1.10;;;1.00;;
16522;SDS011;19889;52.546;13.348;2023-03-14T01:46:38;1.23;;;1.13;;
16522;SDS011;19889;52.546;13.348;2023-03-14T01:49:13;1.30;;;0.95;;
16522;SDS011;19889;52.546;13.348;2023-03-14T01:51:57;0.90;;;0.90;;
16522;SDS011;19889;52.546;13.348;2023-03-14T01:54:28;0.80;;;0.80;;
16522;SDS011;19889;52.546;13.348;2023-03-14T01:57:02;0.80;;;0.80;;
16522;SDS011;19889;52.546;13.348;2023-03-14T01:59:31;1.85;;;0.95;;
16522;SDS011;19889;52.546;13.348;2023-03-14T02:02:00;1.77;;;0.90;;
16522;SDS011;19889;52.546;13.348;2023-03-14T02:04:31;1.37;;;1.00;;
16522;SDS011;19889;52.546;13.348;2023-03-14T02:07:04;1.10;;;0.90;;
16522;SDS011;19889;52.546;13.348;2023-03-14T02:09:38;1.00;;;1.00;;
16522;SDS011;19889;52.546;13.348;2023-03-14T02:12:08;3.67;;;0.82;;
16522;SDS011;19889;52.546;13.348;2023-03-14T02:14:43;4.20;;;2.38;;
16522;SDS011;19889;52.546;13.348;2023-03-14T02:17:23;1.55;;;0.90;;
16522;SDS011;19889;52.546;13.348;2023-03-14T02:20:16;1.00;;;0.80;;
16522;SDS011;19889;52.546;13.348;2023-03-14T02:22:57;1.15;;;1.08;;
16522;SDS011;19889;52.546;13.348;2023-03-14T02:25:29;0.90;;;0.90;;
16522;SDS011;19889;52.546;13.348;2023-03-14T02:28:06;0.98;;;0.90;;
16522;SDS011;19889;52.546;13.348;2023-03-14T02:30:34;1.83;;;1.00;;
16522;SDS011;19889;52.546;13.348;2023-03-14T02:33:03;2.15;;;0.93;;
16522;SDS011;19889;52.546;13.348;2023-03-14T02:35:33;1.70;;;0.80;;
16522;SDS011;19889;52.546;13.348;2023-03-14T02:38:06;1.40;;;1.00;;
16522;SDS011;19889;52.546;13.348;2023-03-14T02:40:40;1.27;;;1.17;;
16522;SDS011;19889;52.546;13.348;2023-03-14T02:43:08;0.90;;;0.90;;
16522;SDS011;19889;52.546;13.348;2023-03-14T02:45:39;2.43;;;0.83;;
16522;SDS011;19889;52.546;13.348;2023-03-14T02:48:15;0.70;;;0.70;;
16522;SDS011;19889;52.546;13.348;2023-03-14T02:50:45;1.10;;;1.00;;
16522;SDS011;19889;52.546;13.348;2023-03-14T02:53:16;1.10;;;1.00;;
16522;SDS011;19889;52.546;13.348;2023-03-14T02:55:45;1.27;;;0.80;;
16522;SDS011;19889;52.546;13.348;2023-03-14T02:58:16;1.13;;;1.00;;
16522;SDS011;19889;52.546;13.348;2023-03-14T03:00:44;0.93;;;0.73;;
16522;SDS011;19889;52.546;13.348;2023-03-14T03:03:12;1.50;;;1.00;;
16522;SDS011;19889;52.546;13.348;2023-03-14T03:05:39;1.23;;;0.73;;
16522;SDS011;19889;52.546;13.348;2023-03-14T03:08:07;0.73;;;0.73;;
16522;SDS011;19889;52.546;13.348;2023-03-14T03:10:35;0.80;;;0.80;;
16522;SDS011;19889;52.546;13.348;2023-03-14T03:13:03;0.95;;;0.93;;
16522;SDS011;19889;52.546;13.348;2023-03-14T03:15:31;4.20;;;0.80;;
16522;SDS011;19889;52.546;13.348;2023-03-14T03:17:59;1.02;;;0.93;;
16522;SDS011;19889;52.546;13.348;2023-03-14T03:20:26;1.30;;;0.90;;
16522;SDS011;19889;52.546;13.348;2023-03-14T03:22:53;1.27;;;0.90;;
16522;SDS011;19889;52.546;13.348;2023-03-14T03:25:20;1.10;;;0.93;;
16522;SDS011;19889;52.546;13.348;2023-03-14T03:27:49;2.40;;;1.03;;
16522;SDS011;19889;52.546;13.348;2023-03-14T03:30:17;0.90;;;0.80;;
16522;SDS011;19889;52.546;13.348;2023-03-14T03:32:46;0.67;;;0.67;;
16522;SDS011;19889;52.546;13.348;2023-03-14T03:35:14;1.00;;;0.77;;
16522;SDS011;19889;52.546;13.348;2023-03-14T03:37:41;0.60;;;0.60;;
16522;SDS011;19889;52.546;13.348;2023-03-14T03:40:08;1.87;;;0.90;;
16522;SDS011;19889;52.546;13.348;2023-03-14T03:42:36;1.37;;;0.80;;
16522;SDS011;19889;52.546;13.348;2023-03-14T03:45:07;1.07;;;1.07;;
16522;SDS011;19889;52.546;13.348;2023-03-14T03:47:41;1.17;;;0.80;;
16522;SDS011;19889;52.546;13.348;2023-03-14T03:50:09;0.95;;;0.80;;
16522;SDS011;19889;52.546;13.348;2023-03-14T03:52:36;0.97;;;0.67;;
16522;SDS011;19889;52.546;13.348;2023-03-14T03:55:04;0.80;;;0.80;;
16522;SDS011;19889;52.546;13.348;2023-03-14T03:57:31;1.10;;;1.00;;
16522;SDS011;19889;52.546;13.348;2023-03-14T03:59:58;1.30;;;0.90;;
16522;SDS011;19889;52.546;13.348;2023-03-14T04:02:26;0.90;;;0.83;;
16522;SDS011;19889;52.546;13.348;2023-03-14T04:04:53;1.10;;;0.80;;
16522;SDS011;19889;52.546;13.348;2023-03-14T04:07:22;1.20;;;1.07;;
16522;SDS011;19889;52.546;13.348;2023-03-14T04:09:50;1.03;;;0.80;;
16522;SDS011;19889;52.546;13.348;2023-03-14T04:12:23;0.90;;;0.80;;
16522;SDS011;19889;52.546;13.348;2023-03-14T04:14:58;1.25;;;1.05;;
16522;SDS011;19889;52.546;13.348;2023-03-14T04:17:25;0.67;;;0.67;;
16522;SDS011;19889;52.546;13.348;2023-03-14T04:19:52;0.73;;;0.73;;
16522;SDS011;19889;52.546;13.348;2023-03-14T04:22:22;2.43;;;0.90;;
16522;SDS011;19889;52.546;13.348;2023-03-14T04:24:50;1.57;;;0.90;;
16522;SDS011;19889;52.546;13.348;2023-03-14T04:27:19;1.13;;;0.70;;
16522;SDS011;19889;52.546;13.348;2023-03-14T04:29:47;0.82;;;0.82;;
16522;SDS011;19889;52.546;13.348;2023-03-14T04:32:18;1.63;;;0.70;;
16522;SDS011;19889;52.546;13.348;2023-03-14T04:34:46;0.83;;;0.80;;
16522;SDS011;19889;52.546;13.348;2023-03-14T04:37:13;2.83;;;0.83;;
16522;SDS011;19889;52.546;13.348;2023-03-14T04:39:44;1.00;;;1.00;;
16522;SDS011;19889;52.546;13.348;2023-03-14T04:42:15;5.03;;;2.90;;
16522;SDS011;19889;52.546;13.348;2023-03-14T04:44:42;30.77;;;17.83;;
16522;SDS011;19889;52.546;13.348;2023-03-14T04:47:13;15.87;;;9.60;;
16522;SDS011;19889;52.546;13.348;2023-03-14T04:49:40;42.27;;;24.40;;
16522;SDS011;19889;52.546;13.348;2023-03-14T04:52:09;31.00;;;17.47;;
16522;SDS011;19889;52.546;13.348;2023-03-14T04:54:37;3.20;;;2.00;;
16522;SDS011;19889;52.546;13.348;2023-03-14T04:57:05;7.80;;;4.40;;
16522;SDS011;19889;52.546;13.348;2023-03-14T04:59:35;5.97;;;3.27;;
16522;SDS011;19889;52.546;13.348;2023-03-14T05:02:23;3.47;;;2.03;;
16522;SDS011;19889;52.546;13.348;2023-03-14T05:04:59;3.00;;;2.57;;
16522;SDS011;19889;52.546;13.348;2023-03-14T05:07:59;1.53;;;1.30;;
16522;SDS011;19889;52.546;13.348;2023-03-14T05:10:44;2.87;;;2.60;;
16522;SDS011;19889;52.546;13.348;2023-03-14T05:13:58;11.13;;;7.43;;
16522;SDS011;19889;52.546;13.348;2023-03-14T05:16:37;20.67;;;12.67;;
16522;SDS011;19889;52.546;13.348;2023-03-14T05:19:39;8.63;;;5.80;;
16522;SDS011;19889;52.546;13.348;2023-03-14T05:22:29;2.23;;;2.03;;
16522;SDS011;19889;52.546;13.348;2023-03-14T05:25:07;2.47;;;1.20;;
16522;SDS011;19889;52.546;13.348;2023-03-14T05:27:53;1.80;;;1.00;;
16522;SDS011;19889;52.546;13.348;2023-03-14T05:30:40;1.07;;;0.97;;
16522;SDS011;19889;52.546;13.348;2023-03-14T05:33:30;0.80;;;0.80;;
16522;SDS011;19889;52.546;13.348;2023-03-14T05:36:16;1.57;;;1.00;;
16522;SDS011;19889;52.546;13.348;2023-03-14T05:39:03;0.77;;;0.70;;
16522;SDS011;19889;52.546;13.348;2023-03-14T05:41:56;1.47;;;1.10;;
16522;SDS011;19889;52.546;13.348;2023-03-14T05:44:26;3.23;;;0.70;;
16522;SDS011;19889;52.546;13.348;2023-03-14T05:46:55;1.20;;;1.10;;
16522;SDS011;19889;52.546;13.348;2023-03-14T05:49:48;3.17;;;0.93;;
16522;SDS011;19889;52.546;13.348;2023-03-14T05:52:33;1.37;;;1.00;;
16522;SDS011;19889;52.546;13.348;2023-03-14T05:55:25;1.08;;;1.00;;
16522;SDS011;19889;52.546;13.348;2023-03-14T05:58:22;10.03;;;6.17;;
16522;SDS011;19889;52.546;13.348;2023-03-14T06:01:16;8.23;;;3.73;;
16522;SDS011;19889;52.546;13.348;2023-03-14T06:04:08;2.80;;;1.50;;
16522;SDS011;19889;52.546;13.348;2023-03-14T06:06:36;2.30;;;1.40;;
16522;SDS011;19889;52.546;13.348;2023-03-14T06:09:04;1.27;;;1.17;;
16522;SDS011;19889;52.546;13.348;2023-03-14T06:11:35;3.10;;;1.23;;
16522;SDS011;19889;52.546;13.348;2023-03-14T06:14:03;2.77;;;1.20;;
16522;SDS011;19889;52.546;13.348;2023-03-14T06:16:30;7.43;;;3.73;;
16522;SDS011;19889;52.546;13.348;2023-03-14T06:18:58;3.63;;;2.27;;
16522;SDS011;19889;52.546;13.348;2023-03-14T06:21:29;2.70;;;1.37;;
16522;SDS011;19889;52.546;13.348;2023-03-14T06:23:56;30.63;;;14.90;;
16522;SDS011;19889;52.546;13.348;2023-03-14T06:26:25;11.10;;;7.73;;
16522;SDS011;19889;52.546;13.348;2023-03-14T06:28:53;11.07;;;5.13;;
16522;SDS011;19889;52.546;13.348;2023-03-14T06:31:21;2.13;;;1.30;;
16522;SDS011;19889;52.546;13.348;2023-03-14T06:33:54;4.80;;;1.30;;
16522;SDS011;19889;52.546;13.348;2023-03-14T06:36:25;1.23;;;1.10;;
16522;SDS011;19889;52.546;13.348;2023-03-14T06:38:53;9.67;;;4.83;;
16522;SDS011;19889;52.546;13.348;2023-03-14T06:41:20;6.63;;;2.70;;
16522;SDS011;19889;52.546;13.348;2023-03-14T06:43:49;3.57;;;1.40;;
16522;SDS011;19889;52.546;13.348;2023-03-14T06:46:16;3.47;;;1.23;;
16522;SDS011;19889;52.546;13.348;2023-03-14T06:48:43;2.87;;;1.57;;
16522;SDS011;19889;52.546;13.348;2023-03-14T06:51:11;3.60;;;1.20;;
16522;SDS011;19889;52.546;13.348;2023-03-14T06:53:38;4.33;;;1.53;;
16522;SDS011;19889;52.546;13.348;2023-03-14T06:56:08;5.53;;;1.70;;
16522;SDS011;19889;52.546;13.348;2023-03-14T06:58:35;2.67;;;1.70;;
16522;SDS011;19889;52.546;13.348;2023-03-14T07:01:04;5.63;;;2.20;;
16522;SDS011;19889;52.546;13.348;2023-03-14T07:03:38;3.67;;;1.70;;
16522;SDS011;19889;52.546;13.348;2023-03-14T07:06:05;7.87;;;1.57;;
16522;SDS011;19889;52.546;13.348;2023-03-14T07:08:33;12.83;;;7.77;;
16522;SDS011;19889;52.546;13.348;2023-03-14T07:11:00;5.30;;;2.83;;
16522;SDS011;19889;52.546;13.348;2023-03-14T07:13:29;4.07;;;1.70;;
16522;SDS011;19889;52.546;13.348;2023-03-14T07:16:01;2.23;;;1.10;;
16522;SDS011;19889;52.546;13.348;2023-03-14T07:18:28;1.17;;;0.83;;
16522;SDS011;19889;52.546;13.348;2023-03-14T07:20:55;3.77;;;1.43;;
16522;SDS011;19889;52.546;13.348;2023-03-14T07:23:23;1.50;;;1.07;;
16522;SDS011;19889;52.546;13.348;2023-03-14T07:25:52;4.37;;;1.37;;
16522;SDS011;19889;52.546;13.348;2023-03-14T07:28:21;3.47;;;1.23;;
16522;SDS011;19889;52.546;13.348;2023-03-14T07:30:56;3.90;;;1.35;;
16522;SDS011;19889;52.546;13.348;2023-03-14T07:33:27;2.37;;;0.90;;
16522;SDS011;19889;52.546;13.348;2023-03-14T07:35:55;3.93;;;1.57;;
16522;SDS011;19889;52.546;13.348;2023-03-14T07:38:22;1.73;;;1.23;;
16522;SDS011;19889;52.546;13.348;2023-03-14T07:41:24;4.63;;;1.20;;
16522;SDS011;19889;52.546;13.348;2023-03-14T07:44:11;1.90;;;1.60;;
16522;SDS011;19889;52.546;13.348;2023-03-14T07:46:39;2.80;;;1.30;;
16522;SDS011;19889;52.546;13.348;2023-03-14T07:49:06;4.30;;;1.35;;
16522;SDS011;19889;52.546;13.348;2023-03-14T07:51:33;3.55;;;1.52;;
16522;SDS011;19889;52.546;13.348;2023-03-14T07:54:00;3.35;;;1.45;;
16522;SDS011;19889;52.546;13.348;2023-03-14T07:56:27;6.68;;;1.52;;
16522;SDS011;19889;52.546;13.348;2023-03-14T07:58:54;2.97;;;1.23;;
16522;SDS011;19889;52.546;13.348;2023-03-14T08:01:21;3.57;;;1.20;;
16522;SDS011;19889;52.546;13.348;2023-03-14T08:03:49;2.22;;;1.38;;
16522;SDS011;19889;52.546;13.348;2023-03-14T08:06:16;3.70;;;1.85;;
16522;SDS011;19889;52.546;13.348;2023-03-14T08:08:43;2.00;;;1.30;;
16522;SDS011;19889;52.546;13.348;2023-03-14T08:11:10;4.00;;;1.90;;
16522;SDS011;19889;52.546;13.348;2023-03-14T08:13:37;1.85;;;1.33;;
16522;SDS011;19889;52.546;13.348;2023-03-14T08:16:05;2.65;;;1.67;;
16522;SDS011;19889;52.546;13.348;2023-03-14T08:18:32;2.42;;;1.25;;
16522;SDS011;19889;52.546;13.348;2023-03-14T08:21:00;2.22;;;1.05;;
16522;SDS011;19889;52.546;13.348;2023-03-14T08:23:29;6.78;;;2.17;;
16522;SDS011;19889;52.546;13.348;2023-03-14T08:25:56;3.35;;;1.70;;
16522;SDS011;19889;52.546;13.348;2023-03-14T08:28:23;4.88;;;1.92;;
16522;SDS011;19889;52.546;13.348;2023-03-14T08:30:55;7.40;;;2.53;;
16522;SDS011;19889;52.546;13.348;2023-03-14T08:33:22;7.53;;;2.38;;
16522;SDS011;19889;52.546;13.348;2023-03-14T08:35:51;10.15;;;2.00;;
16522;SDS011;19889;52.546;13.348;2023-03-14T08:38:19;2.92;;;1.58;;
16522;SDS011;19889;52.546;13.348;2023-03-14T08:40:46;5.95;;;1.50;;
16522;SDS011;19889;52.546;13.348;2023-03-14T08:43:14;4.25;;;1.65;;
16522;SDS011;19889;52.546;13.348;2023-03-14T08:45:41;2.38;;;1.30;;
16522;SDS011;19889;52.546;13.348;2023-03-14T08:48:08;3.72;;;1.55;;
16522;SDS011;19889;52.546;13.348;2023-03-14T08:50:35;4.93;;;1.63;;
16522;SDS011;19889;52.546;13.348;2023-03-14T08:53:02;4.55;;;1.98;;
16522;SDS011;19889;52.546;13.348;2023-03-14T08:55:30;3.38;;;2.03;;
16522;SDS011;19889;52.546;13.348;2023-03-14T08:57:57;2.40;;;1.10;;
16522;SDS011;19889;52.546;13.348;2023-03-14T09:00:24;3.92;;;1.77;;
16522;SDS011;19889;52.546;13.348;2023-03-14T09:02:51;5.55;;;1.60;;
16522;SDS011;19889;52.546;13.348;2023-03-14T09:05:18;3.70;;;1.52;;
16522;SDS011;19889;52.546;13.348;2023-03-14T09:07:44;5.88;;;1.23;;
16522;SDS011;19889;52.546;13.348;2023-03-14T09:10:11;2.42;;;1.30;;
16522;SDS011;19889;52.546;13.348;2023-03-14T09:12:40;2.85;;;1.63;;
16522;SDS011;19889;52.546;13.348;2023-03-14T09:15:07;4.00;;;1.55;;
16522;SDS011;19889;52.546;13.348;2023-03-14T09:17:35;1.52;;;1.02;;
16522;SDS011;19889;52.546;13.348;2023-03-14T09:20:02;3.95;;;1.05;;
16522;SDS011;19889;52.546;13.348;2023-03-14T09:22:31;3.95;;;1.42;;
16522;SDS011;19889;52.546;13.348;2023-03-14T09:25:01;2.33;;;1.50;;
16522;SDS011;19889;52.546;13.348;2023-03-14T09:27:28;2.67;;;1.00;;
16522;SDS011;19889;52.546;13.348;2023-03-14T09:29:56;4.25;;;1.17;;
16522;SDS011;19889;52.546;13.348;2023-03-14T09:32:23;4.55;;;1.17;;
16522;SDS011;19889;52.546;13.348;2023-03-14T09:34:50;3.13;;;1.00;;
16522;SDS011;19889;52.546;13.348;2023-03-14T09:37:17;5.53;;;1.38;;
16522;SDS011;19889;52.546;13.348;2023-03-14T09:39:45;2.67;;;1.30;;
16522;SDS011;19889;52.546;13.348;2023-03-14T09:42:13;3.15;;;1.20;;
16522;SDS011;19889;52.546;13.348;2023-03-14T09:44:45;4.18;;;1.35;;
16522;SDS011;19889;52.546;13.348;2023-03-14T09:47:21;3.58;;;1.10;;
16522;SDS011;19889;52.546;13.348;2023-03-14T09:49:49;3.10;;;1.42;;
16522;SDS011;19889;52.546;13.348;2023-03-14T09:52:17;2.22;;;1.00;;
16522;SDS011;19889;52.546;13.348;2023-03-14T09:54:50;3.35;;;1.15;;
16522;SDS011;19889;52.546;13.348;2023-03-14T09:57:19;4.47;;;1.30;;
16522;SDS011;19889;52.546;13.348;2023-03-14T09:59:49;5.60;;;1.20;;
16522;SDS011;19889;52.546;13.348;2023-03-14T10:02:19;3.15;;;1.25;;
16522;SDS011;19889;52.546;13.348;2023-03-14T10:04:49;3.13;;;1.13;;
16522;SDS011;19889;52.546;13.348;2023-03-14T10:07:18;2.50;;;1.10;;
16522;SDS011;19889;52.546;13.348;2023-03-14T10:09:48;1.50;;;1.30;;
16522;SDS011;19889;52.546;13.348;2023-03-14T10:12:16;1.75;;;0.98;;
16522;SDS011;19889;52.546;13.348;2023-03-14T10:14:45;6.80;;;1.55;;
16522;SDS011;19889;52.546;13.348;2023-03-14T10:17:14;4.38;;;1.17;;
16522;SDS011;19889;52.546;13.348;2023-03-14T10:19:54;1.30;;;1.00;;
16522;SDS011;19889;52.546;13.348;2023-03-14T10:22:23;1.77;;;1.00;;
16522;SDS011;19889;52.546;13.348;2023-03-14T10:24:53;2.50;;;1.20;;
16522;SDS011;19889;52.546;13.348;2023-03-14T10:27:27;3.70;;;1.05;;
16522;SDS011;19889;52.546;13.348;2023-03-14T10:29:56;4.50;;;2.58;;
16522;SDS011;19889;52.546;13.348;2023-03-14T10:32:28;1.30;;;1.08;;
16522;SDS011;19889;52.546;13.348;2023-03-14T10:35:08;5.05;;;2.83;;
16522;SDS011;19889;52.546;13.348;2023-03-14T10:37:52;2.58;;;1.15;;
16522;SDS011;19889;52.546;13.348;2023-03-14T10:40:24;3.75;;;1.13;;
16522;SDS011;19889;52.546;13.348;2023-03-14T10:42:55;2.33;;;1.40;;
16522;SDS011;19889;52.546;13.348;2023-03-14T10:45:33;5.13;;;1.38;;
16522;SDS011;19889;52.546;13.348;2023-03-14T10:48:06;2.13;;;1.05;;
16522;SDS011;19889;52.546;13.348;2023-03-14T10:50:53;1.90;;;1.08;;
16522;SDS011;19889;52.546;13.348;2023-03-14T10:53:22;5.00;;;2.20;;
16522;SDS011;19889;52.546;13.348;2023-03-14T10:55:50;1.60;;;1.10;;
16522;SDS011;19889;52.546;13.348;2023-03-14T10:58:20;1.95;;;0.80;;
16522;SDS011;19889;52.546;13.348;2023-03-14T11:00:51;3.03;;;1.30;;
16522;SDS011;19889;52.546;13.348;2023-03-14T11:03:24;4.00;;;1.77;;
16522;SDS011;19889;52.546;13.348;2023-03-14T11:05:57;2.40;;;1.40;;
16522;SDS011;19889;52.546;13.348;2023-03-14T11:08:29;0.98;;;0.80;;
16522;SDS011;19889;52.546;13.348;2023-03-14T11:11:05;1.95;;;0.70;;
16522;SDS011;19889;52.546;13.348;2023-03-14T11:13:40;5.05;;;1.00;;
16522;SDS011;19889;52.546;13.348;2023-03-14T11:16:14;3.80;;;1.17;;
16522;SDS011;19889;52.546;13.348;2023-03-14T11:18:51;1.30;;;1.00;;
16522;SDS011;19889;52.546;13.348;2023-03-14T11:21:32;1.08;;;0.90;;
16522;SDS011;19889;52.546;13.348;2023-03-14T11:24:08;2.50;;;0.98;;
16522;SDS011;19889;52.546;13.348;2023-03-14T11:26:53;1.98;;;0.93;;
16522;SDS011;19889;52.546;13.348;2023-03-14T11:29:28;2.08;;;0.90;;
16522;SDS011;19889;52.546;13.348;2023-03-14T11:32:03;2.10;;;1.10;;
16522;SDS011;19889;52.546;13.348;2023-03-14T11:34:39;2.58;;;0.80;;
16522;SDS011;19889;52.546;13.348;2023-03-14T11:37:14;1.92;;;1.02;;
16522;SDS011;19889;52.546;13.348;2023-03-14T11:39:45;4.82;;;1.00;;
16522;SDS011;19889;52.546;13.348;2023-03-14T11:42:21;4.15;;;1.15;;
16522;SDS011;19889;52.546;13.348;2023-03-14T11:44:50;1.95;;;0.93;;
16522;SDS011;19889;52.546;13.348;2023-03-14T11:47:17;1.65;;;0.80;;
16522;SDS011;19889;52.546;13.348;2023-03-14T11:49:49;2.03;;;1.00;;
16522;SDS011;19889;52.546;13.348;2023-03-14T11:52:22;1.27;;;0.82;;
16522;SDS011;19889;52.546;13.348;2023-03-14T11:54:56;1.23;;;1.02;;
16522;SDS011;19889;52.546;13.348;2023-03-14T11:57:26;3.50;;;0.90;;
16522;SDS011;19889;52.546;13.348;2023-03-14T11:59:55;3.78;;;1.10;;
16522;SDS011;19889;52.546;13.348;2023-03-14T12:02:27;2.92;;;0.90;;
16522;SDS011;19889;52.546;13.348;2023-03-14T12:10:54;2.88;;;1.10;;
16522;SDS011;19889;52.546;13.348;2023-03-14T12:13:27;4.03;;;0.98;;
16522;SDS011;19889;52.546;13.348;2023-03-14T12:15:56;4.97;;;0.88;;
16522;SDS011;19889;52.546;13.348;2023-03-14T12:18:26;3.13;;;1.23;;
16522;SDS011;19889;52.546;13.348;2023-03-14T12:20:55;1.60;;;0.80;;
16522;SDS011;19889;52.546;13.348;2023-03-14T12:23:25;4.03;;;0.95;;
16522;SDS011;19889;52.546;13.348;2023-03-14T12:26:07;3.03;;;0.90;;
16522;SDS011;19889;52.546;13.348;2023-03-14T12:28:42;4.38;;;1.17;;
16522;SDS011;19889;52.546;13.348;2023-03-14T12:34:28;1.92;;;1.00;;
16522;SDS011;19889;52.546;13.348;2023-03-14T12:37:01;5.78;;;2.85;;
16522;SDS011;19889;52.546;13.348;2023-03-14T12:42:45;1.63;;;1.10;;
16522;SDS011;19889;52.546;13.348;2023-03-14T12:45:24;1.38;;;0.73;;
16522;SDS011;19889;52.546;13.348;2023-03-14T12:47:54;2.08;;;0.80;;
16522;SDS011;19889;52.546;13.348;2023-03-14T12:50:32;1.20;;;0.80;;
16522;SDS011;19889;52.546;13.348;2023-03-14T12:56:06;0.77;;;0.77;;
16522;SDS011;19889;52.546;13.348;2023-03-14T12:58:41;1.90;;;0.70;;
16522;SDS011;19889;52.546;13.348;2023-03-14T13:01:14;2.45;;;0.90;;
16522;SDS011;19889;52.546;13.348;2023-03-14T13:03:45;1.65;;;0.90;;
16522;SDS011;19889;52.546;13.348;2023-03-14T13:06:13;2.83;;;1.00;;
16522;SDS011;19889;52.546;13.348;2023-03-14T13:12:17;1.67;;;0.88;;
16522;SDS011;19889;52.546;13.348;2023-03-14T13:14:50;1.77;;;0.95;;
16522;SDS011;19889;52.546;13.348;2023-03-14T13:17:20;2.35;;;1.17;;
16522;SDS011;19889;52.546;13.348;2023-03-14T13:19:53;1.35;;;0.70;;
16522;SDS011;19889;52.546;13.348;2023-03-14T13:22:24;0.70;;;0.70;;
16522;SDS011;19889;52.546;13.348;2023-03-14T13:25:00;0.70;;;0.70;;
16522;SDS011;19889;52.546;13.348;2023-03-14T13:27:30;2.47;;;0.90;;
16522;SDS011;19889;52.546;13.348;2023-03-14T13:29:59;0.88;;;0.80;;
16522;SDS011;19889;52.546;13.348;2023-03-14T13:32:40;2.15;;;1.17;;
16522;SDS011;19889;52.546;13.348;2023-03-14T13:35:14;1.95;;;1.05;;
16522;SDS011;19889;52.546;13.348;2023-03-14T13:37:43;1.70;;;1.20;;
16522;SDS011;19889;52.546;13.348;2023-03-14T13:40:18;1.98;;;0.73;;
16522;SDS011;19889;52.546;13.348;2023-03-14T13:42:47;1.98;;;0.93;;
16522;SDS011;19889;52.546;13.348;2023-03-14T13:45:16;1.95;;;0.70;;
16522;SDS011;19889;52.546;13.348;2023-03-14T13:47:43;2.72;;;0.85;;
16522;SDS011;19889;52.546;13.348;2023-03-14T13:50:15;3.08;;;1.10;;
16522;SDS011;19889;52.546;13.348;2023-03-14T13:52:46;1.98;;;1.00;;
16522;SDS011;19889;52.546;13.348;2023-03-14T13:55:20;2.63;;;0.95;;
16522;SDS011;19889;52.546;13.348;2023-03-14T13:57:48;1.20;;;1.10;;
16522;SDS011;19889;52.546;13.348;2023-03-14T14:00:22;3.00;;;1.33;;
16522;SDS011;19889;52.546;13.348;2023-03-14T14:02:52;1.00;;;0.82;;
16522;SDS011;19889;52.546;13.348;2023-03-14T14:05:20;2.22;;;0.80;;
16522;SDS011;19889;52.546;13.348;2023-03-14T14:07:48;2.80;;;1.23;;
16522;SDS011;19889;52.546;13.348;2023-03-14T14:10:16;1.88;;;0.90;;
16522;SDS011;19889;52.546;13.348;2023-03-14T14:12:45;1.02;;;0.77;;
16522;SDS011;19889;52.546;13.348;2023-03-14T14:15:17;0.80;;;0.55;;
16522;SDS011;19889;52.546;13.348;2023-03-14T14:17:49;1.90;;;1.10;;
16522;SDS011;19889;52.546;13.348;2023-03-14T14:20:20;2.00;;;0.73;;
16522;SDS011;19889;52.546;13.348;2023-03-14T14:22:50;5.50;;;3.45;;
16522;SDS011;19889;52.546;13.348;2023-03-14T14:25:17;2.40;;;0.80;;
16522;SDS011;19889;52.546;13.348;2023-03-14T14:27:46;1.75;;;0.70;;
16522;SDS011;19889;52.546;13.348;2023-03-14T14:30:26;0.70;;;0.70;;
16522;SDS011;19889;52.546;13.348;2023-03-14T14:33:10;2.53;;;0.90;;
16522;SDS011;19889;52.546;13.348;2023-03-14T14:35:42;1.05;;;0.82;;
16522;SDS011;19889;52.546;13.348;2023-03-14T14:38:17;2.10;;;1.08;;
16522;SDS011;19889;52.546;13.348;2023-03-14T14:40:46;2.17;;;1.27;;
16522;SDS011;19889;52.546;13.348;2023-03-14T14:43:16;1.20;;;0.77;;
16522;SDS011;19889;52.546;13.348;2023-03-14T14:45:46;1.00;;;0.77;;
16522;SDS011;19889;52.546;13.348;2023-03-14T14:48:17;1.15;;;0.85;;
16522;SDS011;19889;52.546;13.348;2023-03-14T14:50:49;0.88;;;0.70;;
16522;SDS011;19889;52.546;13.348;2023-03-14T14:53:26;1.42;;;1.13;;
16522;SDS011;19889;52.546;13.348;2023-03-14T14:55:56;0.70;;;0.70;;
16522;SDS011;19889;52.546;13.348;2023-03-14T14:58:26;1.10;;;0.88;;
16522;SDS011;19889;52.546;13.348;2023-03-14T15:00:58;1.35;;;0.85;;
16522;SDS011;19889;52.546;13.348;2023-03-14T15:03:31;1.13;;;0.50;;
16522;SDS011;19889;52.546;13.348;2023-03-14T15:06:00;0.73;;;0.60;;
16522;SDS011;19889;52.546;13.348;2023-03-14T15:08:28;0.98;;;0.60;;
16522;SDS011;19889;52.546;13.348;2023-03-14T15:10:55;1.00;;;0.60;;
16522;SDS011;19889;52.546;13.348;2023-03-14T15:13:23;2.55;;;1.13;;
16522;SDS011;19889;52.546;13.348;2023-03-14T15:15:50;1.25;;;0.70;;